Time;durP1;ratioP1;P1;durP2;ratioP2;P2;SDS_P1;SDS_P2;PMS_P1;PMS_P2;Temp;Humidity;BMP_temperature;BMP_pressure;BME280_temperature;BME280_humidity;BME280_pressure;Samples;Min_cycle;Max_cycle;Signal;HPM_P1;HPM_P2
2023/07/07 00:00:47;;;;;;;5.88;3.13;;;;;;;;;;5015511;28;25071;-73
2023/07/07 00:03:13;;;;;;;5.05;3.42;;;;;;;;;;5031296;28;25059;-74
2023/07/07 00:05:42;;;;;;;7.35;3.70;;;;;;;;;;5028945;28;25082;-73
2023/07/07 00:08:08;;;;;;;6.60;4.10;;;;;;;;;;5030931;28;25052;-73
2023/07/07 00:10:34;;;;;;;6.00;3.15;;;;;;;;;;5022800;28;25084;-73
2023/07/07 00:13:00;;;;;;;7.47;3.53;;;;;;;;;;5043187;28;25076;-73
2023/07/07 00:15:26;;;;;;;5.63;3.22;;;;;;;;;;5032876;28;25051;-73
2023/07/07 00:17:52;;;;;;;8.20;3.78;;;;;;;;;;5048824;28;25075;-72
2023/07/07 00:20:21;;;;;;;6.55;3.63;;;;;;;;;;5035174;28;25079;-73
2023/07/07 00:22:47;;;;;;;5.80;3.30;;;;;;;;;;5023807;28;25141;-72
2023/07/07 00:25:14;;;;;;;6.10;3.42;;;;;;;;;;5029176;28;25080;-73
2023/07/07 00:27:40;;;;;;;8.63;3.20;;;;;;;;;;5026182;28;25149;-72
2023/07/07 00:30:07;;;;;;;3.35;3.00;;;;;;;;;;5025608;28;25066;-73
2023/07/07 00:32:33;;;;;;;9.00;3.88;;;;;;;;;;5014420;28;25072;-73
2023/07/07 00:34:59;;;;;;;8.10;3.70;;;;;;;;;;5015924;28;25051;-73
2023/07/07 00:37:25;;;;;;;7.45;4.20;;;;;;;;;;5019542;28;25068;-74
2023/07/07 00:39:51;;;;;;;11.00;4.03;;;;;;;;;;5025904;28;25142;-74
2023/07/07 00:42:17;;;;;;;6.55;3.60;;;;;;;;;;5028447;28;25053;-74
2023/07/07 00:45:02;;;;;;;9.55;3.78;;;;;;;;;;5028682;28;25247;-74
2023/07/07 00:47:28;;;;;;;11.65;4.00;;;;;;;;;;5018679;28;25079;-72
2023/07/07 00:49:54;;;;;;;5.32;4.10;;;;;;;;;;5028320;28;25090;-73
2023/07/07 00:52:20;;;;;;;9.00;4.80;;;;;;;;;;5022531;28;25066;-74
2023/07/07 00:54:46;;;;;;;9.20;4.75;;;;;;;;;;5024165;28;25058;-73
2023/07/07 00:57:12;;;;;;;13.13;5.82;;;;;;;;;;5042222;28;25064;-74
2023/07/07 00:59:40;;;;;;;9.57;6.03;;;;;;;;;;5046845;28;25154;-74
2023/07/07 01:02:09;;;;;;;11.90;5.97;;;;;;;;;;5054099;28;25093;-72
2023/07/07 01:04:37;;;;;;;16.20;6.78;;;;;;;;;;5051725;28;25059;-71
2023/07/07 01:07:06;;;;;;;9.57;6.72;;;;;;;;;;5029328;28;25149;-73
2023/07/07 01:09:32;;;;;;;10.98;6.38;;;;;;;;;;5042364;28;25062;-75
2023/07/07 01:11:59;;;;;;;10.18;6.30;;;;;;;;;;5028523;28;25067;-72
2023/07/07 01:14:26;;;;;;;9.95;5.72;;;;;;;;;;5028861;28;25067;-73
2023/07/07 01:16:58;;;;;;;10.40;6.07;;;;;;;;;;5030926;28;25057;-72
2023/07/07 01:19:24;;;;;;;;;;;;;;;;;;5049865;28;25152;-74
2023/07/07 01:22:09;;;;;;;10.73;6.80;;;;;;;;;;5028114;28;24082;-73
2023/07/07 01:25:17;;;;;;;12.73;7.07;;;;;;;;;;5027512;28;25072;-73
2023/07/07 01:28:02;;;;;;;12.32;6.72;;;;;;;;;;4940861;28;25060;-72
2023/07/07 01:30:47;;;;;;;12.52;7.50;;;;;;;;;;4949516;28;25070;-74
2023/07/07 01:33:15;;;;;;;11.35;6.32;;;;;;;;;;5001344;28;25097;-73
2023/07/07 01:35:41;;;;;;;12.80;6.60;;;;;;;;;;5032617;28;25071;-73
2023/07/07 01:38:27;;;;;;;10.35;5.97;;;;;;;;;;5033612;28;25060;-73
2023/07/07 01:40:57;;;;;;;11.60;6.90;;;;;;;;;;5043504;28;25067;-73
2023/07/07 01:43:27;;;;;;;11.23;6.15;;;;;;;;;;5035011;28;25099;-74
2023/07/07 01:45:59;;;;;;;16.20;6.28;;;;;;;;;;5035448;28;25076;-74
2023/07/07 01:48:36;;;;;;;16.98;7.97;;;;;;;;;;5037366;28;25037;-72
2023/07/07 01:51:04;;;;;;;14.90;6.35;;;;;;;;;;5024093;28;25073;-73
2023/07/07 01:53:31;;;;;;;8.25;6.25;;;;;;;;;;5027012;28;25059;-74
2023/07/07 01:55:59;;;;;;;12.68;7.07;;;;;;;;;;5028965;28;25124;-73
2023/07/07 01:58:26;;;;;;;11.48;6.03;;;;;;;;;;5029028;28;25110;-74
2023/07/07 02:00:52;;;;;;;14.95;7.20;;;;;;;;;;5053169;28;25127;-73
2023/07/07 02:03:19;;;;;;;16.40;7.03;;;;;;;;;;5037834;28;25056;-74
2023/07/07 02:05:46;;;;;;;9.02;5.95;;;;;;;;;;5027286;28;25133;-76
2023/07/07 02:08:12;;;;;;;10.50;5.88;;;;;;;;;;5023393;28;25084;-75
2023/07/07 02:10:38;;;;;;;10.38;5.65;;;;;;;;;;5042761;28;25091;-71
2023/07/07 02:13:04;;;;;;;11.43;6.22;;;;;;;;;;5029316;28;25124;-74
2023/07/07 02:15:30;;;;;;;9.82;5.22;;;;;;;;;;5027290;28;25043;-74
2023/07/07 02:17:56;;;;;;;9.98;6.20;;;;;;;;;;5020230;28;25120;-73
2023/07/07 02:20:22;;;;;;;8.68;5.88;;;;;;;;;;5021357;28;25058;-73
2023/07/07 02:22:48;;;;;;;9.23;5.70;;;;;;;;;;5028161;28;25054;-73
2023/07/07 02:25:15;;;;;;;8.50;5.55;;;;;;;;;;5023628;28;25092;-73
2023/07/07 02:27:41;;;;;;;8.45;5.57;;;;;;;;;;5019427;28;25098;-73
2023/07/07 02:30:08;;;;;;;12.77;6.30;;;;;;;;;;5025890;28;25072;-72
2023/07/07 02:32:33;;;;;;;8.60;4.57;;;;;;;;;;5019260;28;25090;-75
2023/07/07 02:35:01;;;;;;;9.77;5.03;;;;;;;;;;5028049;28;25092;-75
2023/07/07 02:37:27;;;;;;;8.60;5.35;;;;;;;;;;5026969;28;25069;-72
2023/07/07 02:39:54;;;;;;;10.63;6.00;;;;;;;;;;5024840;28;25077;-72
2023/07/07 02:42:20;;;;;;;7.05;4.90;;;;;;;;;;5027395;28;25068;-72
2023/07/07 02:44:46;;;;;;;7.15;5.18;;;;;;;;;;5025739;28;25065;-74
2023/07/07 02:47:12;;;;;;;6.65;5.15;;;;;;;;;;5020043;28;25074;-73
2023/07/07 02:49:38;;;;;;;10.40;5.25;;;;;;;;;;5018528;28;25059;-73
2023/07/07 02:52:05;;;;;;;10.27;5.13;;;;;;;;;;5024068;28;25138;-74
2023/07/07 02:54:31;;;;;;;7.13;4.68;;;;;;;;;;5026732;28;25071;-72
2023/07/07 02:56:57;;;;;;;8.05;4.32;;;;;;;;;;5023038;28;25077;-72
2023/07/07 02:59:23;;;;;;;5.82;4.22;;;;;;;;;;5023802;28;25069;-72
2023/07/07 03:01:49;;;;;;;7.15;4.65;;;;;;;;;;5022239;28;25066;-72
2023/07/07 03:04:15;;;;;;;7.10;4.38;;;;;;;;;;5028462;28;25072;-73
2023/07/07 03:06:41;;;;;;;7.63;4.82;;;;;;;;;;5019282;28;25052;-73
2023/07/07 03:09:07;;;;;;;4.65;3.58;;;;;;;;;;5019286;28;25078;-73
2023/07/07 03:11:34;;;;;;;6.57;3.90;;;;;;;;;;5021362;28;25077;-74
2023/07/07 03:14:00;;;;;;;4.32;3.50;;;;;;;;;;5027374;28;25098;-73
2023/07/07 03:16:30;;;;;;;4.78;3.70;;;;;;;;;;5018773;28;25100;-72
2023/07/07 03:18:58;;;;;;;6.60;3.53;;;;;;;;;;5023928;28;25201;-73
2023/07/07 03:21:24;;;;;;;7.93;3.83;;;;;;;;;;5027633;28;25142;-74
2023/07/07 03:23:51;;;;;;;10.00;3.75;;;;;;;;;;5016045;28;25067;-74
2023/07/07 03:26:18;;;;;;;6.85;3.50;;;;;;;;;;5014009;28;25079;-72
2023/07/07 03:28:44;;;;;;;12.38;4.03;;;;;;;;;;5021513;28;25086;-71
2023/07/07 03:31:17;;;;;;;7.13;3.30;;;;;;;;;;5024841;28;25112;-73
2023/07/07 03:33:44;;;;;;;7.15;2.85;;;;;;;;;;5027528;28;25085;-75
2023/07/07 03:36:12;;;;;;;6.63;3.13;;;;;;;;;;5026755;28;25069;-72
2023/07/07 03:38:39;;;;;;;5.65;3.20;;;;;;;;;;5047572;28;25083;-74
2023/07/07 03:41:05;;;;;;;5.28;3.00;;;;;;;;;;5055380;28;25076;-74
2023/07/07 03:43:35;;;;;;;9.35;3.22;;;;;;;;;;5043275;28;25073;-74
2023/07/07 03:46:01;;;;;;;6.90;3.45;;;;;;;;;;5037546;28;25074;-73
2023/07/07 03:48:28;;;;;;;7.00;3.22;;;;;;;;;;5043371;28;25066;-74
2023/07/07 03:50:58;;;;;;;5.80;3.20;;;;;;;;;;5034126;28;25048;-75
2023/07/07 03:53:24;;;;;;;8.77;3.05;;;;;;;;;;5045969;28;25071;-75
2023/07/07 03:55:50;;;;;;;5.47;2.88;;;;;;;;;;5050201;28;25080;-74
2023/07/07 03:58:15;;;;;;;5.57;2.70;;;;;;;;;;5051992;28;25062;-73
2023/07/07 04:00:41;;;;;;;6.13;3.63;;;;;;;;;;5043742;28;25068;-72
2023/07/07 04:03:07;;;;;;;6.10;3.13;;;;;;;;;;5030347;28;25142;-73
2023/07/07 04:05:39;;;;;;;5.38;2.53;;;;;;;;;;5031863;28;25070;-73
2023/07/07 04:08:05;;;;;;;8.40;3.95;;;;;;;;;;5021658;28;25050;-72
2023/07/07 04:10:31;;;;;;;4.05;2.80;;;;;;;;;;5027467;28;25162;-73
2023/07/07 04:12:57;;;;;;;3.38;2.92;;;;;;;;;;5033086;28;25083;-73
2023/07/07 04:15:23;;;;;;;9.88;3.15;;;;;;;;;;5022175;28;25087;-70
2023/07/07 04:17:49;;;;;;;5.18;2.63;;;;;;;;;;5020903;28;25072;-70
2023/07/07 04:20:16;;;;;;;8.55;4.07;;;;;;;;;;5021288;28;25083;-72
2023/07/07 04:22:42;;;;;;;5.82;3.13;;;;;;;;;;5028550;28;25062;-74
2023/07/07 04:25:12;;;;;;;3.50;2.50;;;;;;;;;;5026019;28;25095;-71
2023/07/07 04:27:38;;;;;;;7.65;3.75;;;;;;;;;;5025742;28;25064;-74
2023/07/07 04:30:05;;;;;;;6.82;2.67;;;;;;;;;;5022038;28;25063;-73
2023/07/07 04:32:32;;;;;;;5.07;3.10;;;;;;;;;;5024135;28;25064;-73
2023/07/07 04:34:59;;;;;;;7.70;3.40;;;;;;;;;;5028275;28;25075;-72
2023/07/07 04:37:25;;;;;;;6.75;3.58;;;;;;;;;;5026513;28;25045;-72
2023/07/07 04:39:51;;;;;;;4.50;2.78;;;;;;;;;;5026294;28;25104;-74
2023/07/07 04:42:17;;;;;;;8.95;3.35;;;;;;;;;;5023953;28;25134;-71
2023/07/07 04:44:43;;;;;;;4.78;3.10;;;;;;;;;;5026847;28;25095;-73
2023/07/07 04:47:09;;;;;;;9.90;3.42;;;;;;;;;;5024344;28;25071;-75
2023/07/07 04:49:35;;;;;;;6.60;3.30;;;;;;;;;;5032922;28;25072;-71
2023/07/07 04:52:01;;;;;;;7.20;3.08;;;;;;;;;;5031015;28;25065;-72
2023/07/07 04:54:27;;;;;;;6.25;3.28;;;;;;;;;;5025585;28;25097;-72
2023/07/07 04:56:53;;;;;;;7.95;3.50;;;;;;;;;;5027541;28;25123;-72
2023/07/07 04:59:19;;;;;;;4.70;2.55;;;;;;;;;;5024775;28;25050;-73
2023/07/07 05:01:45;;;;;;;3.90;2.83;;;;;;;;;;5027935;28;25047;-72
2023/07/07 05:04:11;;;;;;;6.38;2.72;;;;;;;;;;5029405;28;25057;-72
2023/07/07 05:06:38;;;;;;;7.03;2.80;;;;;;;;;;5031342;28;25097;-73
2023/07/07 05:09:04;;;;;;;3.70;2.50;;;;;;;;;;5023902;28;25046;-72
2023/07/07 05:11:31;;;;;;;6.53;2.58;;;;;;;;;;5025938;28;25075;-72
2023/07/07 05:13:57;;;;;;;3.65;2.60;;;;;;;;;;5030395;28;25138;-73
2023/07/07 05:16:24;;;;;;;6.97;2.83;;;;;;;;;;5021151;28;25049;-71
2023/07/07 05:18:51;;;;;;;6.43;2.53;;;;;;;;;;5051003;28;25107;-73
2023/07/07 05:21:18;;;;;;;7.00;2.50;;;;;;;;;;5035944;28;25073;-72
2023/07/07 05:23:45;;;;;;;6.60;2.72;;;;;;;;;;5029649;28;25090;-74
2023/07/07 05:26:11;;;;;;;3.47;2.10;;;;;;;;;;5031350;28;25060;-72
2023/07/07 05:28:37;;;;;;;5.13;2.30;;;;;;;;;;5030014;28;25118;-73
2023/07/07 05:31:06;;;;;;;3.50;2.25;;;;;;;;;;5032528;28;25130;-73
2023/07/07 05:33:32;;;;;;;6.25;2.80;;;;;;;;;;5028958;28;25056;-73
2023/07/07 05:36:02;;;;;;;6.22;2.13;;;;;;;;;;5024369;28;25063;-75
2023/07/07 05:38:29;;;;;;;3.83;1.98;;;;;;;;;;5032811;28;25062;-73
2023/07/07 05:40:55;;;;;;;5.55;2.60;;;;;;;;;;5029415;28;25071;-73
2023/07/07 05:43:22;;;;;;;6.72;2.60;;;;;;;;;;5036389;28;25167;-72
2023/07/07 05:45:54;;;;;;;4.25;2.05;;;;;;;;;;5031300;28;25076;-74
2023/07/07 05:48:19;;;;;;;6.50;2.53;;;;;;;;;;5029831;28;25077;-71
2023/07/07 05:50:46;;;;;;;2.60;2.08;;;;;;;;;;5033630;28;25071;-73
2023/07/07 05:53:12;;;;;;;2.78;2.08;;;;;;;;;;5026711;28;25133;-73
2023/07/07 05:55:38;;;;;;;3.33;1.83;;;;;;;;;;5026106;28;25065;-74
2023/07/07 05:58:05;;;;;;;8.43;2.92;;;;;;;;;;5035522;28;25060;-76
2023/07/07 06:00:32;;;;;;;6.13;2.40;;;;;;;;;;5027723;28;25051;-74
2023/07/07 06:02:59;;;;;;;6.43;2.05;;;;;;;;;;5045908;28;25090;-73
2023/07/07 06:05:25;;;;;;;5.35;2.13;;;;;;;;;;5064002;28;25089;-74
2023/07/07 06:07:51;;;;;;;4.05;2.22;;;;;;;;;;5040631;28;25059;-73
2023/07/07 06:10:18;;;;;;;6.72;2.40;;;;;;;;;;5050510;28;25068;-74
2023/07/07 06:12:44;;;;;;;6.05;1.88;;;;;;;;;;5044001;28;25054;-76
2023/07/07 06:15:10;;;;;;;3.58;2.40;;;;;;;;;;5045433;28;25070;-74
2023/07/07 06:17:36;;;;;;;4.00;2.15;;;;;;;;;;5038754;28;25148;-73
2023/07/07 06:20:03;;;;;;;5.32;2.95;;;;;;;;;;5044185;28;25061;-73
2023/07/07 06:22:29;;;;;;;2.85;2.10;;;;;;;;;;5029551;28;25064;-75
2023/07/07 06:24:55;;;;;;;6.75;2.20;;;;;;;;;;5034715;28;25103;-75
2023/07/07 06:27:21;;;;;;;4.97;2.08;;;;;;;;;;5044186;28;25075;-75
2023/07/07 06:29:47;;;;;;;7.07;2.78;;;;;;;;;;5048129;28;25052;-75
2023/07/07 06:32:13;;;;;;;2.80;2.45;;;;;;;;;;5028257;28;25135;-72
2023/07/07 06:34:39;;;;;;;7.18;2.15;;;;;;;;;;5029941;28;25068;-75
2023/07/07 06:37:05;;;;;;;4.43;1.98;;;;;;;;;;5007325;28;25065;-75
2023/07/07 06:39:31;;;;;;;6.72;2.38;;;;;;;;;;5034362;28;25054;-74
2023/07/07 06:41:59;;;;;;;5.47;1.98;;;;;;;;;;5022899;28;25056;-75
2023/07/07 06:44:25;;;;;;;4.10;1.92;;;;;;;;;;5033414;28;25072;-75
2023/07/07 06:46:51;;;;;;;3.85;1.85;;;;;;;;;;5037458;28;25067;-74
2023/07/07 06:49:18;;;;;;;5.60;2.15;;;;;;;;;;5023455;28;25082;-75
2023/07/07 06:51:44;;;;;;;4.90;2.85;;;;;;;;;;5033560;28;25059;-76
2023/07/07 06:54:10;;;;;;;6.65;2.22;;;;;;;;;;5022647;28;25054;-75
2023/07/07 06:56:36;;;;;;;4.07;1.98;;;;;;;;;;5030172;28;25130;-74
2023/07/07 06:59:03;;;;;;;4.82;2.15;;;;;;;;;;5036335;28;25147;-73
2023/07/07 07:01:29;;;;;;;3.85;1.88;;;;;;;;;;5022647;28;25074;-76
2023/07/07 07:03:58;;;;;;;4.03;2.45;;;;;;;;;;5059476;28;25057;-75
2023/07/07 07:06:24;;;;;;;3.13;1.88;;;;;;;;;;5050934;28;25045;-76
2023/07/07 07:08:50;;;;;;;4.20;2.00;;;;;;;;;;5048216;28;25082;-74
2023/07/07 07:11:16;;;;;;;8.40;2.28;;;;;;;;;;5042881;28;25057;-75
2023/07/07 07:13:42;;;;;;;5.35;2.35;;;;;;;;;;5046388;28;25074;-75
2023/07/07 07:16:08;;;;;;;4.22;1.95;;;;;;;;;;5053720;28;25085;-74
2023/07/07 07:18:34;;;;;;;4.00;1.77;;;;;;;;;;5051629;28;25060;-75
2023/07/07 07:21:00;;;;;;;3.33;1.70;;;;;;;;;;5047403;28;25096;-74
2023/07/07 07:23:26;;;;;;;4.25;2.15;;;;;;;;;;5060524;28;25083;-76
2023/07/07 07:25:52;;;;;;;6.75;2.50;;;;;;;;;;5055134;28;25072;-76
2023/07/07 07:28:18;;;;;;;2.58;1.85;;;;;;;;;;5059607;28;25071;-76
2023/07/07 07:30:44;;;;;;;4.65;2.00;;;;;;;;;;5080431;28;25063;-77
2023/07/07 07:33:14;;;;;;;3.88;1.98;;;;;;;;;;5056608;28;25068;-76
2023/07/07 07:35:40;;;;;;;2.58;1.80;;;;;;;;;;5052630;28;25071;-76
2023/07/07 07:38:07;;;;;;;5.13;2.40;;;;;;;;;;5058699;28;25084;-76
2023/07/07 07:40:33;;;;;;;7.40;2.08;;;;;;;;;;5041539;28;25093;-75
2023/07/07 07:42:59;;;;;;;4.57;2.00;;;;;;;;;;5042470;28;25070;-75
2023/07/07 07:45:25;;;;;;;4.72;1.83;;;;;;;;;;5057590;28;25085;-75
2023/07/07 07:47:54;;;;;;;3.70;1.58;;;;;;;;;;5046087;28;25082;-76
2023/07/07 07:50:21;;;;;;;2.40;1.70;;;;;;;;;;5049117;28;25073;-75
2023/07/07 07:52:47;;;;;;;2.63;2.15;;;;;;;;;;5053743;28;25048;-75
2023/07/07 07:55:14;;;;;;;3.75;1.63;;;;;;;;;;5045888;28;25056;-75
2023/07/07 07:57:40;;;;;;;5.15;2.22;;;;;;;;;;5048155;28;25060;-75
2023/07/07 08:00:06;;;;;;;4.07;1.40;;;;;;;;;;5049356;28;25117;-78
2023/07/07 08:02:32;;;;;;;2.90;1.60;;;;;;;;;;5043196;28;25087;-78
2023/07/07 08:04:58;;;;;;;5.10;2.00;;;;;;;;;;5048503;28;25074;-76
2023/07/07 08:07:25;;;;;;;4.50;2.17;;;;;;;;;;5055046;28;25081;-75
2023/07/07 08:09:51;;;;;;;3.78;1.70;;;;;;;;;;5041939;28;25101;-76
2023/07/07 08:12:17;;;;;;;3.50;2.00;;;;;;;;;;5033057;28;25061;-76
2023/07/07 08:14:43;;;;;;;5.30;1.90;;;;;;;;;;5050818;28;25089;-74
2023/07/07 08:17:11;;;;;;;6.88;1.98;;;;;;;;;;5053971;28;25065;-75
2023/07/07 08:19:38;;;;;;;8.30;1.90;;;;;;;;;;5039573;28;25091;-76
2023/07/07 08:22:06;;;;;;;5.22;1.90;;;;;;;;;;5029807;28;25066;-77
2023/07/07 08:24:35;;;;;;;5.65;1.63;;;;;;;;;;5023315;28;25077;-75
2023/07/07 08:27:01;;;;;;;2.47;1.48;;;;;;;;;;5027516;28;25138;-74
2023/07/07 08:29:27;;;;;;;2.58;2.20;;;;;;;;;;5050758;28;25072;-75
2023/07/07 08:31:54;;;;;;;2.38;1.85;;;;;;;;;;5035070;28;25069;-74
2023/07/07 08:34:20;;;;;;;3.25;1.88;;;;;;;;;;5035493;28;25056;-75
2023/07/07 08:36:46;;;;;;;3.90;1.77;;;;;;;;;;5027374;28;25133;-76
2023/07/07 08:39:15;;;;;;;4.32;1.80;;;;;;;;;;5023891;28;25145;-74
2023/07/07 08:41:44;;;;;;;5.63;1.70;;;;;;;;;;5030899;28;25084;-76
2023/07/07 08:44:13;;;;;;;4.05;1.58;;;;;;;;;;5025257;28;25065;-76
2023/07/07 08:46:52;;;;;;;5.85;1.95;;;;;;;;;;5021776;28;25076;-76
2023/07/07 08:49:22;;;;;;;3.50;1.80;;;;;;;;;;5014340;28;25091;-72
2023/07/07 08:51:53;;;;;;;2.28;1.80;;;;;;;;;;5030756;28;25064;-74
2023/07/07 08:54:26;;;;;;;3.35;1.75;;;;;;;;;;5010896;28;25060;-75
2023/07/07 08:56:57;;;;;;;2.72;1.88;;;;;;;;;;5027441;28;25064;-76
2023/07/07 08:59:30;;;;;;;1.90;1.63;;;;;;;;;;5030589;28;25074;-76
2023/07/07 09:02:02;;;;;;;3.90;2.03;;;;;;;;;;5038646;28;25047;-75
2023/07/07 09:04:47;;;;;;;3.40;2.03;;;;;;;;;;5031496;28;25064;-75
2023/07/07 09:07:48;;;;;;;2.78;1.70;;;;;;;;;;5054636;28;25068;-74
2023/07/07 09:10:14;;;;;;;6.53;2.28;;;;;;;;;;5021552;28;25095;-76
2023/07/07 09:12:43;;;;;;;3.90;2.30;;;;;;;;;;5041756;28;25084;-76
2023/07/07 09:15:22;;;;;;;3.88;2.03;;;;;;;;;;5048286;28;25080;-74
2023/07/07 09:17:49;;;;;;;5.13;1.63;;;;;;;;;;5029089;28;25067;-76
2023/07/07 09:20:17;;;;;;;6.10;2.30;;;;;;;;;;5024442;28;25047;-76
2023/07/07 09:22:46;;;;;;;4.53;2.08;;;;;;;;;;5022910;28;25065;-74
2023/07/07 09:25:15;;;;;;;3.13;1.98;;;;;;;;;;5023602;28;25064;-75
2023/07/07 09:27:43;;;;;;;4.40;2.13;;;;;;;;;;5038076;28;25064;-75
2023/07/07 09:30:17;;;;;;;2.58;2.30;;;;;;;;;;5074197;28;25067;-77
2023/07/07 09:32:43;;;;;;;3.35;2.10;;;;;;;;;;5056869;28;25080;-74
2023/07/07 09:35:13;;;;;;;8.38;2.05;;;;;;;;;;5072216;28;25049;-77
2023/07/07 09:38:01;;;;;;;6.45;2.20;;;;;;;;;;5071052;28;25058;-75
2023/07/07 09:40:31;;;;;;;3.47;2.10;;;;;;;;;;5044350;28;25071;-76
2023/07/07 09:43:00;;;;;;;4.80;1.60;;;;;;;;;;5035414;28;25170;-75
2023/07/07 09:45:36;;;;;;;3.45;1.98;;;;;;;;;;5027840;28;25060;-75
2023/07/07 09:48:05;;;;;;;3.70;2.22;;;;;;;;;;5038015;28;25083;-74
2023/07/07 09:50:40;;;;;;;5.43;2.28;;;;;;;;;;5036680;28;25068;-76
2023/07/07 09:53:19;;;;;;;4.90;1.60;;;;;;;;;;5043348;28;25083;-74
2023/07/07 09:55:45;;;;;;;3.80;2.33;;;;;;;;;;5033269;28;25110;-73
2023/07/07 09:58:14;;;;;;;3.95;2.20;;;;;;;;;;5024272;28;25144;-74
2023/07/07 10:00:41;;;;;;;8.50;2.35;;;;;;;;;;5026968;28;25074;-73
2023/07/07 10:03:19;;;;;;;4.18;1.42;;;;;;;;;;5023440;28;25104;-74
2023/07/07 10:05:45;;;;;;;2.80;1.70;;;;;;;;;;5023248;28;25073;-75
2023/07/07 10:08:13;;;;;;;3.05;1.80;;;;;;;;;;5021919;28;25060;-74
2023/07/07 10:10:39;;;;;;;6.47;2.20;;;;;;;;;;5021530;28;25057;-74
2023/07/07 10:13:09;;;;;;;3.70;2.08;;;;;;;;;;5023894;28;25075;-75
2023/07/07 10:15:45;;;;;;;4.22;2.10;;;;;;;;;;5022268;28;25053;-74
2023/07/07 10:18:13;;;;;;;2.67;1.95;;;;;;;;;;5016061;28;25121;-76
2023/07/07 10:20:40;;;;;;;4.63;2.30;;;;;;;;;;5023998;28;25092;-76
2023/07/07 10:23:10;;;;;;;4.00;2.30;;;;;;;;;;5018360;28;25052;-71
2023/07/07 10:25:36;;;;;;;3.22;2.00;;;;;;;;;;5018832;28;25064;-73
2023/07/07 10:28:02;;;;;;;6.65;1.85;;;;;;;;;;5012698;28;25052;-71
2023/07/07 10:30:28;;;;;;;4.30;1.83;;;;;;;;;;5023290;28;25061;-75
2023/07/07 10:32:54;;;;;;;3.35;1.88;;;;;;;;;;5014549;28;25054;-74
2023/07/07 10:35:21;;;;;;;3.38;1.50;;;;;;;;;;5017347;28;25106;-75
2023/07/07 10:37:47;;;;;;;4.20;1.80;;;;;;;;;;5014681;28;25061;-74
2023/07/07 10:40:15;;;;;;;2.80;2.15;;;;;;;;;;5026664;28;25069;-74
2023/07/07 10:42:41;;;;;;;4.82;3.03;;;;;;;;;;5031161;28;25071;-73
2023/07/07 10:45:07;;;;;;;5.50;2.30;;;;;;;;;;5034044;28;25073;-75
2023/07/07 10:47:34;;;;;;;3.67;2.13;;;;;;;;;;5019030;28;25098;-76
2023/07/07 10:50:00;;;;;;;4.95;2.42;;;;;;;;;;5025116;28;25060;-75
2023/07/07 10:52:35;;;;;;;3.53;2.20;;;;;;;;;;5020242;28;25081;-76
2023/07/07 10:55:20;;;;;;;3.42;2.30;;;;;;;;;;5019839;28;25059;-74
2023/07/07 10:57:49;;;;;;;3.08;2.10;;;;;;;;;;5016511;28;25050;-74
2023/07/07 11:00:15;;;;;;;5.95;2.38;;;;;;;;;;5024410;28;25131;-76
2023/07/07 11:03:00;;;;;;;2.65;1.80;;;;;;;;;;5021585;28;25076;-76
2023/07/07 11:05:37;;;;;;;3.83;2.28;;;;;;;;;;5023877;28;25083;-74
2023/07/07 11:08:23;;;;;;;4.75;2.03;;;;;;;;;;5019668;28;25148;-76
2023/07/07 11:11:10;;;;;;;4.10;2.03;;;;;;;;;;5011779;28;25088;-76
2023/07/07 11:13:46;;;;;;;4.93;2.47;;;;;;;;;;5019166;28;25065;-76
2023/07/07 11:16:29;;;;;;;5.60;2.20;;;;;;;;;;5021493;28;25086;-76
2023/07/07 11:19:11;;;;;;;3.53;2.25;;;;;;;;;;5010858;28;25066;-75
2023/07/07 11:21:49;;;;;;;3.65;2.17;;;;;;;;;;5016609;28;25048;-76
2023/07/07 11:24:28;;;;;;;3.45;2.55;;;;;;;;;;5015633;28;25075;-77
2023/07/07 11:27:13;;;;;;;3.70;2.15;;;;;;;;;;5022005;28;25146;-76
2023/07/07 11:29:54;;;;;;;4.15;2.22;;;;;;;;;;5011515;28;25056;-76
2023/07/07 11:32:35;;;;;;;5.25;2.53;;;;;;;;;;5012382;28;25066;-75
2023/07/07 11:35:00;;;;;;;3.57;2.47;;;;;;;;;;5015284;28;25142;-75
2023/07/07 11:37:45;;;;;;;4.22;2.63;;;;;;;;;;5022059;28;25081;-76
2023/07/07 11:40:14;;;;;;;4.60;2.58;;;;;;;;;;5019978;28;25098;-73
2023/07/07 11:42:56;;;;;;;2.50;2.20;;;;;;;;;;5013724;28;25072;-75
2023/07/07 11:45:40;;;;;;;3.53;2.00;;;;;;;;;;5021582;28;25158;-74
2023/07/07 11:48:06;;;;;;;4.85;2.42;;;;;;;;;;5020688;28;25058;-76
2023/07/07 11:50:45;;;;;;;8.15;2.63;;;;;;;;;;5033686;28;25062;-75
2023/07/07 11:53:23;;;;;;;4.43;2.40;;;;;;;;;;5027967;28;25125;-76
2023/07/07 11:56:10;;;;;;;5.93;2.65;;;;;;;;;;5015354;28;25059;-76
2023/07/07 11:58:52;;;;;;;8.43;2.83;;;;;;;;;;5027376;28;25084;-74
2023/07/07 12:01:20;;;;;;;4.95;2.40;;;;;;;;;;5022515;28;25150;-77
2023/07/07 12:03:50;;;;;;;3.28;2.47;;;;;;;;;;5019571;28;25091;-76
2023/07/07 12:06:25;;;;;;;4.32;2.42;;;;;;;;;;5038814;28;25055;-72
2023/07/07 12:08:57;;;;;;;4.57;2.30;;;;;;;;;;5023904;28;25059;-75
2023/07/07 12:11:26;;;;;;;5.38;2.30;;;;;;;;;;5025456;28;25080;-77
2023/07/07 12:14:06;;;;;;;3.50;2.60;;;;;;;;;;5026772;28;25117;-74
2023/07/07 12:16:32;;;;;;;3.35;2.35;;;;;;;;;;5019043;28;25080;-76
2023/07/07 12:19:24;;;;;;;2.67;2.03;;;;;;;;;;5028928;28;25086;-77
2023/07/07 12:21:51;;;;;;;2.80;2.30;;;;;;;;;;5039660;28;25138;-77
2023/07/07 12:24:28;;;;;;;11.77;2.42;;;;;;;;;;5053267;28;25136;-78
2023/07/07 12:27:18;;;;;;;6.25;2.65;;;;;;;;;;5044211;28;25067;-75
2023/07/07 12:29:45;;;;;;;5.10;2.55;;;;;;;;;;5027665;28;25102;-73
2023/07/07 12:32:11;;;;;;;7.63;2.35;;;;;;;;;;5031491;28;25145;-75
2023/07/07 12:34:43;;;;;;;3.95;2.00;;;;;;;;;;5029567;28;25067;-76
2023/07/07 12:37:16;;;;;;;5.28;2.72;;;;;;;;;;5028442;28;25096;-75
2023/07/07 12:39:52;;;;;;;4.00;2.20;;;;;;;;;;5034843;28;25150;-73
2023/07/07 12:42:18;;;;;;;5.20;2.30;;;;;;;;;;5024705;28;25059;-73
2023/07/07 12:44:45;;;;;;;3.58;2.28;;;;;;;;;;5026934;28;25069;-74
2023/07/07 12:47:23;;;;;;;7.82;2.42;;;;;;;;;;5021139;28;25049;-73
2023/07/07 12:49:57;;;;;;;2.30;2.10;;;;;;;;;;5028935;28;25096;-73
2023/07/07 12:52:24;;;;;;;4.07;2.60;;;;;;;;;;5028563;28;25096;-75
2023/07/07 12:54:51;;;;;;;5.43;2.10;;;;;;;;;;5028902;28;25071;-72
2023/07/07 12:57:17;;;;;;;2.65;2.05;;;;;;;;;;5027636;28;25063;-74
2023/07/07 12:59:43;;;;;;;3.38;2.03;;;;;;;;;;5032419;28;25111;-73
2023/07/07 13:02:25;;;;;;;4.80;2.25;;;;;;;;;;5038265;28;25054;-73
2023/07/07 13:04:57;;;;;;;5.47;2.63;;;;;;;;;;5038110;28;25096;-74
2023/07/07 13:07:28;;;;;;;7.43;2.85;;;;;;;;;;5027514;28;25121;-74
2023/07/07 13:09:55;;;;;;;3.90;2.13;;;;;;;;;;5030393;28;25067;-75
2023/07/07 13:12:40;;;;;;;6.30;2.38;;;;;;;;;;5016828;28;25071;-75
2023/07/07 13:15:07;;;;;;;9.85;2.20;;;;;;;;;;5029250;28;25089;-72
2023/07/07 13:17:33;;;;;;;3.13;2.15;;;;;;;;;;5030999;28;25106;-72
2023/07/07 13:20:01;;;;;;;8.35;2.35;;;;;;;;;;5026069;28;25071;-71
2023/07/07 13:22:36;;;;;;;5.60;2.30;;;;;;;;;;5029908;28;25153;-72
2023/07/07 13:25:07;;;;;;;2.38;1.92;;;;;;;;;;5036448;28;25073;-73
2023/07/07 13:27:33;;;;;;;5.13;2.40;;;;;;;;;;5023264;28;25050;-74
2023/07/07 13:30:13;;;;;;;4.57;2.60;;;;;;;;;;5040690;28;25084;-73
2023/07/07 13:32:39;;;;;;;2.08;1.65;;;;;;;;;;5036574;28;25133;-72
2023/07/07 13:35:05;;;;;;;3.60;2.25;;;;;;;;;;5028367;28;25148;-71
2023/07/07 13:37:32;;;;;;;4.72;2.25;;;;;;;;;;5031012;28;25083;-73
2023/07/07 13:39:58;;;;;;;7.00;2.85;;;;;;;;;;5033930;28;25064;-73
2023/07/07 13:42:32;;;;;;;4.32;2.97;;;;;;;;;;5027002;28;25069;-74
2023/07/07 13:45:03;;;;;;;3.55;2.20;;;;;;;;;;5023263;28;25066;-74
2023/07/07 13:47:31;;;;;;;5.88;3.13;;;;;;;;;;5019193;28;25112;-71
2023/07/07 13:49:58;;;;;;;3.70;2.25;;;;;;;;;;5025067;28;25090;-73
2023/07/07 13:52:26;;;;;;;4.07;2.30;;;;;;;;;;5023289;28;25062;-75
2023/07/07 13:54:53;;;;;;;8.18;2.92;;;;;;;;;;5048742;28;25086;-73
2023/07/07 13:57:23;;;;;;;3.10;2.38;;;;;;;;;;5043946;28;25057;-72
2023/07/07 13:59:50;;;;;;;4.90;2.60;;;;;;;;;;5044864;28;25149;-74
2023/07/07 14:02:17;;;;;;;9.10;3.00;;;;;;;;;;5041504;28;25076;-74
2023/07/07 14:04:45;;;;;;;3.97;2.60;;;;;;;;;;5037818;28;25063;-74
2023/07/07 14:07:18;;;;;;;8.80;2.10;;;;;;;;;;5030168;28;25054;-73
2023/07/07 14:09:46;;;;;;;4.10;2.65;;;;;;;;;;5018680;28;25061;-73
2023/07/07 14:12:13;;;;;;;4.53;2.92;;;;;;;;;;5014220;28;25075;-73
2023/07/07 14:14:41;;;;;;;6.40;2.70;;;;;;;;;;5020699;28;25081;-72
2023/07/07 14:17:12;;;;;;;4.10;2.83;;;;;;;;;;5012088;28;25073;-71
2023/07/07 14:19:46;;;;;;;8.52;2.28;;;;;;;;;;5020234;28;25129;-72
2023/07/07 14:22:12;;;;;;;3.65;2.72;;;;;;;;;;5019788;28;25076;-72
2023/07/07 14:24:38;;;;;;;5.63;2.60;;;;;;;;;;5024105;28;25044;-75
2023/07/07 14:27:04;;;;;;;3.30;2.33;;;;;;;;;;5021823;28;25047;-73
2023/07/07 14:29:35;;;;;;;4.95;2.70;;;;;;;;;;5021246;28;25141;-74
2023/07/07 14:32:02;;;;;;;3.85;2.55;;;;;;;;;;5015418;28;25083;-75
2023/07/07 14:34:28;;;;;;;3.47;2.35;;;;;;;;;;5019272;28;25089;-74
2023/07/07 14:36:56;;;;;;;4.50;2.00;;;;;;;;;;5023040;28;25115;-74
2023/07/07 14:39:21;;;;;;;3.38;2.60;;;;;;;;;;5021014;28;25064;-75
2023/07/07 14:41:48;;;;;;;5.85;2.90;;;;;;;;;;5024275;28;25115;-75
2023/07/07 14:44:33;;;;;;;6.43;2.83;;;;;;;;;;5018672;28;25073;-72
2023/07/07 14:46:59;;;;;;;3.00;2.17;;;;;;;;;;5018649;28;25093;-74
2023/07/07 14:49:25;;;;;;;4.57;2.17;;;;;;;;;;5023512;28;25093;-77
2023/07/07 14:51:52;;;;;;;4.63;2.60;;;;;;;;;;5021739;28;25091;-73
2023/07/07 14:54:20;;;;;;;5.72;2.72;;;;;;;;;;5018531;28;25062;-73